Time;durP1;ratioP1;P1;durP2;ratioP2;P2;SDS_P1;SDS_P2;PMS_P1;PMS_P2;Temp;Humidity;BMP_temperature;BMP_pressure;BME280_temperature;BME280_humidity;BME280_pressure;Samples;Min_cycle;Max_cycle;Signal;HPM_P1;HPM_P2
2023/12/13 00:01:52;;;;;;;0.00;0.00;;;9.00;99.90;;;;;;5090831;28;20219;-76
2023/12/13 00:04:18;;;;;;;0.00;0.00;;;9.00;99.90;;;;;;5099565;28;20194;-76
2023/12/13 00:06:43;;;;;;;0.00;0.00;;;8.90;99.90;;;;;;5110212;28;20186;-75
2023/12/13 00:09:09;;;;;;;0.00;0.00;;;8.90;99.90;;;;;;5094911;28;20172;-74
2023/12/13 00:11:35;;;;;;;0.00;0.00;;;8.90;99.90;;;;;;5107735;28;20213;-73
2023/12/13 00:14:00;;;;;;;0.00;0.00;;;8.90;99.90;;;;;;5101355;28;20176;-76
2023/12/13 00:16:26;;;;;;;0.00;0.00;;;8.90;99.90;;;;;;5091430;28;20540;-73
2023/12/13 00:18:51;;;;;;;0.00;0.00;;;8.90;99.90;;;;;;5108065;28;20619;-74
2023/12/13 00:21:17;;;;;;;0.00;0.00;;;8.90;99.90;;;;;;5109682;28;20180;-73
2023/12/13 00:23:45;;;;;;;0.00;0.00;;;8.90;99.90;;;;;;5108127;28;20172;-73
2023/12/13 00:26:15;;;;;;;0.00;0.00;;;8.90;99.90;;;;;;5097040;28;20175;-74
2023/12/13 00:28:40;;;;;;;0.00;0.00;;;8.80;99.90;;;;;;5110745;28;20676;-75
2023/12/13 00:31:06;;;;;;;0.00;0.00;;;8.80;99.90;;;;;;5110300;28;20266;-74
2023/12/13 00:33:33;;;;;;;0.00;0.00;;;8.80;99.90;;;;;;5109317;28;20661;-75
2023/12/13 00:35:58;;;;;;;0.00;0.00;;;8.80;99.90;;;;;;5108302;28;20171;-74
2023/12/13 00:38:24;;;;;;;0.00;0.00;;;8.80;99.90;;;;;;5094395;28;20235;-74
2023/12/13 00:40:50;;;;;;;0.00;0.00;;;8.80;99.90;;;;;;5090570;28;20183;-74
2023/12/13 00:43:16;;;;;;;0.00;0.00;;;8.80;99.90;;;;;;5105864;28;20665;-74
2023/12/13 00:45:42;;;;;;;0.00;0.00;;;8.80;99.90;;;;;;5098447;28;20184;-74
2023/12/13 00:48:08;;;;;;;0.00;0.00;;;8.80;99.90;;;;;;5090401;28;20187;-74
2023/12/13 00:50:34;;;;;;;0.00;0.00;;;8.80;99.90;;;;;;5099868;28;20270;-74
2023/12/13 00:52:59;;;;;;;0.08;0.08;;;8.80;99.90;;;;;;5095933;28;20222;-75
2023/12/13 00:55:25;;;;;;;0.00;0.00;;;8.90;99.90;;;;;;5097832;28;20216;-75
2023/12/13 00:57:51;;;;;;;0.00;0.00;;;8.90;99.90;;;;;;5102808;28;20661;-74
2023/12/13 01:00:17;;;;;;;0.00;0.00;;;8.90;99.90;;;;;;5103348;28;20257;-75
2023/12/13 01:02:42;;;;;;;0.00;0.00;;;8.90;99.90;;;;;;5094685;28;20581;-74
2023/12/13 01:05:08;;;;;;;0.00;0.00;;;9.00;99.90;;;;;;5093834;28;20193;-74
2023/12/13 01:07:34;;;;;;;0.00;0.00;;;9.00;99.90;;;;;;5093857;28;20663;-75
2023/12/13 01:09:59;;;;;;;0.00;0.00;;;9.00;99.90;;;;;;5100656;28;20186;-75
2023/12/13 01:12:25;;;;;;;0.00;0.00;;;9.10;99.90;;;;;;5113748;28;20183;-74
2023/12/13 01:14:51;;;;;;;0.00;0.00;;;9.10;99.90;;;;;;5098107;28;20203;-74
2023/12/13 01:17:16;;;;;;;0.00;0.00;;;9.10;99.90;;;;;;5109801;28;20207;-74
2023/12/13 01:19:42;;;;;;;0.00;0.00;;;9.10;99.90;;;;;;5109136;28;20223;-75
2023/12/13 01:22:10;;;;;;;0.00;0.00;;;9.10;99.90;;;;;;5093214;28;20663;-75
2023/12/13 01:24:37;;;;;;;0.00;0.00;;;9.10;99.90;;;;;;5097561;28;20658;-74
2023/12/13 01:27:02;;;;;;;0.00;0.00;;;9.00;99.90;;;;;;5111939;28;20180;-75
2023/12/13 01:29:30;;;;;;;0.00;0.00;;;9.00;99.90;;;;;;5113261;28;20185;-75
2023/12/13 01:31:56;;;;;;;0.00;0.00;;;9.00;99.90;;;;;;5113515;28;20163;-74
2023/12/13 01:34:21;;;;;;;0.00;0.00;;;9.00;99.90;;;;;;5111894;28;20176;-75
2023/12/13 01:36:47;;;;;;;0.00;0.00;;;9.00;99.90;;;;;;5102981;28;20683;-74
2023/12/13 01:39:15;;;;;;;0.00;0.00;;;9.00;99.90;;;;;;5094237;28;20631;-75
2023/12/13 01:41:42;;;;;;;0.10;0.10;;;9.00;99.90;;;;;;5093281;28;20572;-74
2023/12/13 01:44:07;;;;;;;0.00;0.00;;;9.00;99.90;;;;;;5103194;28;20179;-76
2023/12/13 01:46:33;;;;;;;0.00;0.00;;;9.00;99.90;;;;;;5094597;28;20522;-74
2023/12/13 01:48:59;;;;;;;0.00;0.00;;;8.90;99.90;;;;;;5093961;28;20588;-74
2023/12/13 01:51:25;;;;;;;0.00;0.00;;;8.90;99.90;;;;;;5092962;28;20176;-75
2023/12/13 01:53:51;;;;;;;0.00;0.00;;;8.90;99.90;;;;;;5106285;28;20184;-75
2023/12/13 01:56:17;;;;;;;0.00;0.00;;;8.90;99.90;;;;;;5111057;28;20579;-76
2023/12/13 01:58:43;;;;;;;0.00;0.00;;;8.80;99.90;;;;;;5105789;28;20212;-75
2023/12/13 02:01:09;;;;;;;0.00;0.00;;;8.80;99.90;;;;;;5095397;28;20184;-75
2023/12/13 02:03:38;;;;;;;0.00;0.00;;;8.80;99.90;;;;;;5107740;28;20251;-75
2023/12/13 02:06:04;;;;;;;0.00;0.00;;;8.80;99.90;;;;;;5099636;28;20266;-74
2023/12/13 02:08:30;;;;;;;0.00;0.00;;;8.80;99.90;;;;;;5093180;28;20173;-75
2023/12/13 02:10:58;;;;;;;0.00;0.00;;;8.70;99.90;;;;;;5101596;28;20187;-75
2023/12/13 02:13:24;;;;;;;0.00;0.00;;;8.70;99.90;;;;;;5111179;28;20266;-75
2023/12/13 02:15:50;;;;;;;0.00;0.00;;;8.60;99.90;;;;;;5104244;28;20187;-76
2023/12/13 02:18:16;;;;;;;0.00;0.00;;;8.60;99.90;;;;;;5092513;28;20223;-76
2023/12/13 02:20:42;;;;;;;0.00;0.00;;;8.60;99.90;;;;;;5105853;28;20171;-75
2023/12/13 02:23:08;;;;;;;0.00;0.00;;;8.60;99.90;;;;;;5108819;28;20191;-75
2023/12/13 02:25:39;;;;;;;0.00;0.00;;;8.60;99.90;;;;;;5107459;28;20168;-74
2023/12/13 02:28:05;;;;;;;0.00;0.00;;;8.50;99.90;;;;;;5100504;28;20214;-74
2023/12/13 02:30:31;;;;;;;0.00;0.00;;;8.50;99.90;;;;;;5082080;28;20176;-75
2023/12/13 02:32:57;;;;;;;0.00;0.00;;;8.50;99.90;;;;;;5107553;28;20638;-75
2023/12/13 02:35:23;;;;;;;0.00;0.00;;;8.50;99.90;;;;;;5095275;28;20756;-75
2023/12/13 02:37:49;;;;;;;0.00;0.00;;;8.50;99.90;;;;;;5105943;28;20234;-74
2023/12/13 02:40:18;;;;;;;0.00;0.00;;;8.40;99.90;;;;;;5101467;28;20179;-75
2023/12/13 02:42:44;;;;;;;0.00;0.00;;;8.40;99.90;;;;;;5098329;28;20650;-74
2023/12/13 02:45:15;;;;;;;0.00;0.00;;;8.40;99.90;;;;;;5099002;28;20203;-74
2023/12/13 02:47:42;;;;;;;0.00;0.00;;;8.40;99.90;;;;;;5107113;28;20575;-75
2023/12/13 02:50:11;;;;;;;0.00;0.00;;;8.40;99.90;;;;;;5100328;28;20179;-75
2023/12/13 02:52:40;;;;;;;0.00;0.00;;;8.40;99.90;;;;;;5097452;28;20271;-76
2023/12/13 02:55:09;;;;;;;0.00;0.00;;;8.40;99.90;;;;;;5094576;28;20179;-75
2023/12/13 02:57:35;;;;;;;0.00;0.00;;;8.40;99.90;;;;;;5104449;28;20290;-74
2023/12/13 03:00:01;;;;;;;0.00;0.00;;;8.40;99.90;;;;;;5104188;28;20272;-75
2023/12/13 03:02:26;;;;;;;0.00;0.00;;;8.40;99.90;;;;;;5091719;28;20537;-75
2023/12/13 03:04:52;;;;;;;0.00;0.00;;;8.40;99.90;;;;;;5091833;28;20176;-76
2023/12/13 03:07:18;;;;;;;0.00;0.00;;;8.30;99.90;;;;;;5097357;28;20312;-76
2023/12/13 03:09:44;;;;;;;0.00;0.00;;;8.30;99.90;;;;;;5108923;28;20566;-77
2023/12/13 03:12:10;;;;;;;0.00;0.00;;;8.30;99.90;;;;;;5110263;28;20528;-76
2023/12/13 03:14:35;;;;;;;0.00;0.00;;;8.30;99.90;;;;;;5100677;28;20192;-75
2023/12/13 03:17:01;;;;;;;0.00;0.00;;;8.30;99.90;;;;;;5095628;28;20565;-74
2023/12/13 03:19:26;;;;;;;0.00;0.00;;;8.30;99.90;;;;;;5100559;28;20192;-75
2023/12/13 03:21:52;;;;;;;0.00;0.00;;;8.30;99.90;;;;;;5110647;28;20318;-76
2023/12/13 03:24:17;;;;;;;0.00;0.00;;;8.30;99.90;;;;;;5099729;28;20187;-75
2023/12/13 03:26:43;;;;;;;0.00;0.00;;;8.30;99.90;;;;;;5101282;28;20179;-76
2023/12/13 03:29:09;;;;;;;0.00;0.00;;;8.30;99.90;;;;;;5095255;28;20647;-75
2023/12/13 03:31:34;;;;;;;0.00;0.00;;;8.30;99.90;;;;;;5099897;28;20223;-74
2023/12/13 03:34:00;;;;;;;0.00;0.00;;;8.30;99.90;;;;;;5100253;28;20538;-75
2023/12/13 03:36:26;;;;;;;0.00;0.00;;;8.20;99.90;;;;;;5094645;28;20215;-75
2023/12/13 03:38:52;;;;;;;0.00;0.00;;;8.20;99.90;;;;;;5095369;28;20188;-76
2023/12/13 03:41:18;;;;;;;0.00;0.00;;;8.20;99.90;;;;;;5107514;28;20232;-75
2023/12/13 03:43:43;;;;;;;0.00;0.00;;;8.20;99.90;;;;;;5095054;28;20190;-75
2023/12/13 03:46:09;;;;;;;0.00;0.00;;;8.30;99.90;;;;;;5101655;28;20656;-74
2023/12/13 03:48:35;;;;;;;0.00;0.00;;;8.20;99.90;;;;;;5099617;28;20245;-76
2023/12/13 03:51:01;;;;;;;0.00;0.00;;;8.20;99.90;;;;;;5105635;28;20179;-74
2023/12/13 03:53:27;;;;;;;0.00;0.00;;;8.20;99.90;;;;;;5094037;28;20202;-76
2023/12/13 03:55:53;;;;;;;0.00;0.00;;;8.20;99.90;;;;;;5105668;28;20674;-76
2023/12/13 03:58:18;;;;;;;0.00;0.00;;;8.20;99.90;;;;;;5095355;28;20224;-75
2023/12/13 04:00:44;;;;;;;0.00;0.00;;;8.20;99.90;;;;;;5103310;28;20748;-75
2023/12/13 04:03:09;;;;;;;0.00;0.00;;;8.10;99.90;;;;;;5097471;28;20180;-75
2023/12/13 04:05:35;;;;;;;0.00;0.00;;;8.10;99.90;;;;;;5107964;28;20172;-75
2023/12/13 04:08:00;;;;;;;0.00;0.00;;;8.10;99.90;;;;;;5108972;28;20180;-75
2023/12/13 04:10:26;;;;;;;0.90;0.30;;;8.10;99.90;;;;;;5091075;28;20173;-75
2023/12/13 04:12:52;;;;;;;0.00;0.00;;;8.10;99.90;;;;;;5099904;28;20631;-74
2023/12/13 04:15:18;;;;;;;0.00;0.00;;;8.10;99.90;;;;;;5097167;28;20601;-74
2023/12/13 04:17:43;;;;;;;0.00;0.00;;;8.10;99.90;;;;;;5096015;28;20305;-75
2023/12/13 04:20:10;;;;;;;0.00;0.00;;;8.20;99.90;;;;;;5092076;28;20207;-76
2023/12/13 04:22:35;;;;;;;0.00;0.00;;;8.10;99.90;;;;;;5100114;28;20187;-74
2023/12/13 04:25:01;;;;;;;0.00;0.00;;;8.10;99.90;;;;;;5101469;28;20184;-77
2023/12/13 04:27:26;;;;;;;0.00;0.00;;;8.10;99.90;;;;;;5104391;28;20188;-72
2023/12/13 04:29:52;;;;;;;0.00;0.00;;;8.10;99.90;;;;;;5111826;28;20549;-71
2023/12/13 04:32:17;;;;;;;0.00;0.00;;;8.10;99.90;;;;;;5109987;28;20184;-72
2023/12/13 04:34:43;;;;;;;0.00;0.00;;;8.10;99.90;;;;;;5101945;28;20210;-72
2023/12/13 04:37:09;;;;;;;0.00;0.00;;;8.10;99.90;;;;;;5102917;28;20220;-66
2023/12/13 04:39:35;;;;;;;0.00;0.00;;;8.10;99.90;;;;;;5106415;28;20642;-71
2023/12/13 04:42:00;;;;;;;0.00;0.00;;;8.10;99.90;;;;;;5114609;28;20167;-67
2023/12/13 04:44:27;;;;;;;0.00;0.00;;;8.00;99.90;;;;;;5099562;28;20180;-69
2023/12/13 04:46:54;;;;;;;0.00;0.00;;;8.00;99.90;;;;;;5092723;28;20271;-70
2023/12/13 04:49:20;;;;;;;0.00;0.00;;;8.00;99.90;;;;;;5094634;28;20247;-73
2023/12/13 04:51:46;;;;;;;0.00;0.00;;;8.00;99.90;;;;;;5109609;28;20186;-70
2023/12/13 04:54:11;;;;;;;0.00;0.00;;;8.00;99.90;;;;;;5099401;27;20180;-72
2023/12/13 04:56:37;;;;;;;0.00;0.00;;;8.00;99.90;;;;;;5097856;28;20171;-71
2023/12/13 04:59:02;;;;;;;0.00;0.00;;;8.00;99.90;;;;;;5113336;28;20229;-73
2023/12/13 05:01:28;;;;;;;0.00;0.00;;;8.10;99.90;;;;;;5102311;28;20263;-75
2023/12/13 05:03:54;;;;;;;0.00;0.00;;;8.10;99.90;;;;;;5101021;28;20319;-73
2023/12/13 05:06:19;;;;;;;0.00;0.00;;;8.10;99.90;;;;;;5103382;28;20236;-73
2023/12/13 05:08:46;;;;;;;0.00;0.00;;;8.10;99.90;;;;;;5107074;28;20175;-73
2023/12/13 05:11:12;;;;;;;0.00;0.00;;;8.10;99.90;;;;;;5113982;28;20179;-73
2023/12/13 05:13:37;;;;;;;0.00;0.00;;;8.00;99.90;;;;;;5114193;28;20183;-72
2023/12/13 05:16:03;;;;;;;0.00;0.00;;;8.00;99.90;;;;;;5114044;28;20175;-72
2023/12/13 05:18:29;;;;;;;0.00;0.00;;;8.00;99.90;;;;;;5113956;28;20219;-73
2023/12/13 05:20:55;;;;;;;0.00;0.00;;;8.00;99.90;;;;;;5114150;28;20179;-73
2023/12/13 05:23:20;;;;;;;0.00;0.00;;;8.00;99.90;;;;;;5114195;28;20172;-73
2023/12/13 05:25:46;;;;;;;0.28;0.28;;;8.00;99.90;;;;;;5113912;28;20650;-74
2023/12/13 05:28:11;;;;;;;0.00;0.00;;;8.00;99.90;;;;;;5113853;28;20631;-73
2023/12/13 05:30:37;;;;;;;0.00;0.00;;;8.00;99.90;;;;;;5113821;27;20270;-73
2023/12/13 05:33:03;;;;;;;0.00;0.00;;;8.00;99.90;;;;;;5113760;28;20176;-73
2023/12/13 05:35:28;;;;;;;0.00;0.00;;;7.90;99.90;;;;;;5113343;28;20185;-73
2023/12/13 05:37:54;;;;;;;0.00;0.00;;;7.90;99.90;;;;;;5100064;28;20262;-73
2023/12/13 05:40:19;;;;;;;0.00;0.00;;;7.90;99.90;;;;;;5092023;28;20180;-73
2023/12/13 05:42:45;;;;;;;0.00;0.00;;;7.90;99.90;;;;;;5093224;28;20187;-73
2023/12/13 05:45:11;;;;;;;0.00;0.00;;;7.90;99.90;;;;;;5092891;28;20718;-73
2023/12/13 05:47:36;;;;;;;0.00;0.00;;;8.00;99.90;;;;;;5093288;28;20516;-74
2023/12/13 05:50:04;;;;;;;0.00;0.00;;;8.00;99.90;;;;;;5092797;28;20187;-72
2023/12/13 05:52:32;;;;;;;0.00;0.00;;;8.00;99.90;;;;;;5093016;28;20544;-74
2023/12/13 05:54:58;;;;;;;0.00;0.00;;;8.00;99.90;;;;;;5092924;28;20176;-74
2023/12/13 05:57:24;;;;;;;0.00;0.00;;;8.00;99.90;;;;;;5092705;28;20813;-73
2023/12/13 05:59:49;;;;;;;0.00;0.00;;;8.00;99.90;;;;;;5092811;28;20184;-73
2023/12/13 06:02:15;;;;;;;0.00;0.00;;;8.00;99.90;;;;;;5092773;28;20180;-73
2023/12/13 06:04:42;;;;;;;0.00;0.00;;;8.10;99.90;;;;;;5092776;28;20176;-74
2023/12/13 06:07:09;;;;;;;0.00;0.00;;;8.10;99.90;;;;;;5092462;28;20241;-73
2023/12/13 06:09:34;;;;;;;0.00;0.00;;;8.10;99.90;;;;;;5092642;28;20176;-74
2023/12/13 06:12:00;;;;;;;0.00;0.00;;;8.10;99.90;;;;;;5092576;28;20184;-74
2023/12/13 06:14:25;;;;;;;0.00;0.00;;;8.20;99.90;;;;;;5092454;28;20255;-73
2023/12/13 06:16:51;;;;;;;0.00;0.00;;;8.20;99.90;;;;;;5092448;28;20180;-73
2023/12/13 06:19:16;;;;;;;0.00;0.00;;;8.20;99.90;;;;;;5092501;28;20211;-73
2023/12/13 06:21:42;;;;;;;0.00;0.00;;;8.20;99.90;;;;;;5092529;28;20251;-73
2023/12/13 06:24:07;;;;;;;0.00;0.00;;;8.20;99.90;;;;;;5091859;28;20666;-73
2023/12/13 06:26:33;;;;;;;0.00;0.00;;;8.30;99.90;;;;;;5092191;28;20168;-73
2023/12/13 06:28:59;;;;;;;0.00;0.00;;;8.30;99.90;;;;;;5092043;28;20639;-72
2023/12/13 06:31:25;;;;;;;0.00;0.00;;;8.30;99.90;;;;;;5092094;28;20168;-72
2023/12/13 06:33:50;;;;;;;0.00;0.00;;;8.30;99.90;;;;;;5092003;28;20656;-72
2023/12/13 06:36:16;;;;;;;0.00;0.00;;;8.30;99.90;;;;;;5091840;28;20172;-72
2023/12/13 06:38:42;;;;;;;0.00;0.00;;;8.30;99.90;;;;;;5102378;28;20219;-72
2023/12/13 06:41:07;;;;;;;0.00;0.00;;;8.30;99.90;;;;;;5091717;28;20527;-73
2023/12/13 06:43:33;;;;;;;0.00;0.00;;;8.30;99.90;;;;;;5091862;28;20172;-72
2023/12/13 06:45:58;;;;;;;0.00;0.00;;;8.20;99.90;;;;;;5091596;28;20254;-73
2023/12/13 06:48:24;;;;;;;0.00;0.00;;;8.30;99.90;;;;;;5091034;28;20187;-72
2023/12/13 06:50:49;;;;;;;0.00;0.00;;;8.20;99.90;;;;;;5091764;28;20183;-72
2023/12/13 06:53:15;;;;;;;0.00;0.00;;;8.30;99.90;;;;;;5091584;28;20581;-72
2023/12/13 06:55:40;;;;;;;0.00;0.00;;;8.30;99.90;;;;;;5091601;28;20585;-73
2023/12/13 06:58:06;;;;;;;0.00;0.00;;;8.20;99.90;;;;;;5091440;28;20207;-71
2023/12/13 07:00:32;;;;;;;0.00;0.00;;;8.30;99.90;;;;;;5091563;28;20169;-73
2023/12/13 07:02:57;;;;;;;0.00;0.00;;;8.20;99.90;;;;;;5091434;28;20632;-73
2023/12/13 07:05:23;;;;;;;0.00;0.00;;;8.20;99.90;;;;;;5091570;28;20184;-74
2023/12/13 07:07:48;;;;;;;0.00;0.00;;;8.20;99.90;;;;;;5091530;28;20681;-73
2023/12/13 07:10:15;;;;;;;0.00;0.00;;;8.20;99.90;;;;;;5091436;28;20177;-73
2023/12/13 07:12:40;;;;;;;0.00;0.00;;;8.20;99.90;;;;;;5091493;28;20587;-73
2023/12/13 07:15:07;;;;;;;0.00;0.00;;;8.20;99.90;;;;;;5091159;28;20164;-73
2023/12/13 07:17:33;;;;;;;0.00;0.00;;;8.20;99.90;;;;;;5091319;28;20250;-73
2023/12/13 07:19:59;;;;;;;0.00;0.00;;;8.20;99.90;;;;;;5091272;28;20203;-73
2023/12/13 07:22:24;;;;;;;0.00;0.00;;;8.20;99.90;;;;;;5091198;28;20266;-73
2023/12/13 07:24:50;;;;;;;0.00;0.00;;;8.20;99.90;;;;;;5091310;28;20172;-73
2023/12/13 07:27:16;;;;;;;0.00;0.00;;;8.20;99.90;;;;;;5091245;28;20183;-72
2023/12/13 07:29:42;;;;;;;0.00;0.00;;;8.20;99.90;;;;;;5091236;28;20172;-73
2023/12/13 07:32:08;;;;;;;0.00;0.00;;;8.20;99.90;;;;;;5091013;28;20535;-73
2023/12/13 07:34:36;;;;;;;0.00;0.00;;;8.30;99.90;;;;;;5091211;28;20164;-73
2023/12/13 07:37:01;;;;;;;0.10;0.10;;;8.20;99.90;;;;;;5095318;28;20304;-73
2023/12/13 07:39:30;;;;;;;0.00;0.00;;;8.20;99.90;;;;;;5096719;28;20206;-74
2023/12/13 07:41:56;;;;;;;0.00;0.00;;;8.20;99.90;;;;;;5090995;28;20206;-73
2023/12/13 07:44:21;;;;;;;0.00;0.00;;;8.30;99.90;;;;;;5090976;28;20173;-73
2023/12/13 07:46:47;;;;;;;0.00;0.00;;;8.30;99.90;;;;;;5090943;28;20179;-73
2023/12/13 07:49:12;;;;;;;0.00;0.00;;;8.30;99.90;;;;;;5106628;28;20566;-73
2023/12/13 07:51:39;;;;;;;0.00;0.00;;;8.30;99.90;;;;;;5091058;28;20168;-73
2023/12/13 07:54:04;;;;;;;0.00;0.00;;;8.30;99.90;;;;;;5090807;28;20211;-73
2023/12/13 07:56:30;;;;;;;0.00;0.00;;;8.30;99.90;;;;;;5089636;28;20210;-72
2023/12/13 07:58:56;;;;;;;0.20;0.20;;;8.40;99.90;;;;;;5091666;28;20219;-73
2023/12/13 08:01:22;;;;;;;0.00;0.00;;;8.40;99.90;;;;;;5095047;28;20204;-73
2023/12/13 08:03:49;;;;;;;0.00;0.00;;;8.40;99.90;;;;;;5094977;28;20654;-72
2023/12/13 08:06:18;;;;;;;0.00;0.00;;;8.40;99.90;;;;;;5095041;28;20664;-74
2023/12/13 08:08:44;;;;;;;0.00;0.00;;;8.40;99.90;;;;;;5094916;28;20218;-73
2023/12/13 08:11:11;;;;;;;0.00;0.00;;;8.40;99.90;;;;;;5093490;28;20207;-73
2023/12/13 08:13:36;;;;;;;0.00;0.00;;;8.40;99.90;;;;;;5094866;28;20706;-72
2023/12/13 08:16:02;;;;;;;0.00;0.00;;;8.40;99.90;;;;;;5094745;28;20260;-73
2023/12/13 08:18:27;;;;;;;0.00;0.00;;;8.40;99.90;;;;;;5094629;28;20727;-74
2023/12/13 08:20:53;;;;;;;0.00;0.00;;;8.40;99.90;;;;;;5093558;28;20179;-74
2023/12/13 08:23:18;;;;;;;0.00;0.00;;;8.30;99.90;;;;;;5094832;28;20659;-74
2023/12/13 08:25:44;;;;;;;0.00;0.00;;;8.30;99.90;;;;;;5094689;28;20686;-73
2023/12/13 08:28:10;;;;;;;0.00;0.00;;;8.30;99.90;;;;;;5094388;28;20176;-74
2023/12/13 08:30:35;;;;;;;0.00;0.00;;;8.30;99.90;;;;;;5094447;28;20183;-74
2023/12/13 08:33:01;;;;;;;0.60;0.60;;;8.30;99.90;;;;;;5094423;28;20176;-74
2023/12/13 08:35:27;;;;;;;0.00;0.00;;;8.30;99.90;;;;;;5094363;28;20179;-74
2023/12/13 08:37:53;;;;;;;0.00;0.00;;;8.30;99.90;;;;;;5104766;28;20227;-73
2023/12/13 08:40:19;;;;;;;0.00;0.00;;;8.30;99.90;;;;;;5094442;28;20180;-74
2023/12/13 08:42:44;;;;;;;0.00;0.00;;;8.30;99.90;;;;;;5094375;28;20507;-74
2023/12/13 08:45:10;;;;;;;0.00;0.00;;;8.30;99.90;;;;;;5094283;28;20233;-75
2023/12/13 08:47:37;;;;;;;0.00;0.00;;;8.30;99.90;;;;;;5094482;28;20666;-73
2023/12/13 08:50:03;;;;;;;0.00;0.00;;;8.30;99.90;;;;;;5094257;28;20180;-74
2023/12/13 08:52:29;;;;;;;0.00;0.00;;;8.40;99.90;;;;;;5094226;28;20321;-73
2023/12/13 08:54:54;;;;;;;0.00;0.00;;;8.50;99.90;;;;;;5094023;28;20179;-73
2023/12/13 08:57:20;;;;;;;0.00;0.00;;;8.50;99.90;;;;;;5094302;28;20302;-73
2023/12/13 08:59:46;;;;;;;0.00;0.00;;;8.60;99.90;;;;;;5094063;28;20217;-74
2023/12/13 09:02:11;;;;;;;0.00;0.00;;;8.60;99.90;;;;;;5094047;28;20172;-73
2023/12/13 09:04:37;;;;;;;0.00;0.00;;;8.70;99.90;;;;;;5094119;28;20527;-73
2023/12/13 09:07:03;;;;;;;0.00;0.00;;;8.70;99.90;;;;;;5094005;28;20164;-73
2023/12/13 09:09:31;;;;;;;0.00;0.00;;;8.70;99.90;;;;;;5093659;28;20183;-73
2023/12/13 09:11:57;;;;;;;0.45;0.45;;;8.80;99.90;;;;;;5093529;28;20176;-72
2023/12/13 09:14:23;;;;;;;0.00;0.00;;;8.90;99.90;;;;;;5093950;28;20180;-73
2023/12/13 09:16:48;;;;;;;0.00;0.00;;;9.00;99.90;;;;;;5093582;28;20187;-72
2023/12/13 09:19:14;;;;;;;0.00;0.00;;;9.10;99.90;;;;;;5093789;28;20248;-74
2023/12/13 09:21:40;;;;;;;0.00;0.00;;;9.10;99.90;;;;;;5093810;28;20168;-74
2023/12/13 09:24:07;;;;;;;0.00;0.00;;;9.10;99.90;;;;;;5093644;28;20191;-74
2023/12/13 09:26:33;;;;;;;0.00;0.00;;;9.10;99.90;;;;;;5093756;28;20246;-74
2023/12/13 09:28:59;;;;;;;0.00;0.00;;;9.20;99.90;;;;;;5093631;28;20176;-74
2023/12/13 09:31:24;;;;;;;0.00;0.00;;;9.30;99.90;;;;;;5093547;28;20226;-74
2023/12/13 09:33:53;;;;;;;0.00;0.00;;;9.40;99.90;;;;;;5093383;28;20641;-74
2023/12/13 09:36:19;;;;;;;0.00;0.00;;;9.50;99.90;;;;;;5093316;28;20195;-73
2023/12/13 09:38:45;;;;;;;0.00;0.00;;;9.70;99.90;;;;;;5112210;28;20374;-73
2023/12/13 09:41:12;;;;;;;0.00;0.00;;;9.90;99.90;;;;;;5113719;28;20627;-73
2023/12/13 09:43:41;;;;;;;0.00;0.00;;;10.10;99.90;;;;;;5113725;27;20183;-73
2023/12/13 09:46:12;;;;;;;0.00;0.00;;;10.20;99.90;;;;;;5113422;28;20228;-73
2023/12/13 09:48:38;;;;;;;0.00;0.00;;;10.30;99.90;;;;;;5113601;28;20745;-73
2023/12/13 09:51:05;;;;;;;0.00;0.00;;;10.40;99.90;;;;;;5113367;28;20190;-72
2023/12/13 09:53:34;;;;;;;0.00;0.00;;;10.50;99.90;;;;;;5113624;27;20196;-74
2023/12/13 09:56:01;;;;;;;0.00;0.00;;;10.50;99.90;;;;;;5113408;28;20672;-72
2023/12/13 09:58:27;;;;;;;0.00;0.00;;;10.40;99.90;;;;;;5113154;28;20283;-73
2023/12/13 10:00:52;;;;;;;0.00;0.00;;;10.40;99.90;;;;;;5113303;28;20626;-73
2023/12/13 10:03:18;;;;;;;0.00;0.00;;;10.20;99.90;;;;;;5113120;28;20183;-73
2023/12/13 10:05:48;;;;;;;0.00;0.00;;;10.00;99.90;;;;;;5113096;28;20176;-73
2023/12/13 10:08:14;;;;;;;0.00;0.00;;;10.00;99.90;;;;;;5113081;28;20168;-73
2023/12/13 10:10:42;;;;;;;0.00;0.00;;;9.90;99.90;;;;;;5113105;28;20262;-73
2023/12/13 10:13:10;;;;;;;0.00;0.00;;;9.80;99.90;;;;;;5112907;27;20550;-72
2023/12/13 10:15:36;;;;;;;0.00;0.00;;;9.80;99.90;;;;;;5106780;28;20188;-67
2023/12/13 10:18:02;;;;;;;0.00;0.00;;;9.90;99.90;;;;;;5099364;28;20208;-70
2023/12/13 10:20:30;;;;;;;0.00;0.00;;;9.90;99.90;;;;;;5092627;28;20187;-70
2023/12/13 10:22:55;;;;;;;0.00;0.00;;;9.80;99.90;;;;;;5092354;28;20230;-69
2023/12/13 10:25:22;;;;;;;0.00;0.00;;;9.80;99.90;;;;;;5099391;28;20176;-70
2023/12/13 10:27:52;;;;;;;0.00;0.00;;;9.80;99.90;;;;;;5112426;28;20183;-69
2023/12/13 10:30:19;;;;;;;0.00;0.00;;;9.90;99.90;;;;;;5117508;27;20693;-70
2023/12/13 10:32:44;;;;;;;0.00;0.00;;;9.90;99.90;;;;;;5112514;28;20707;-70
2023/12/13 10:35:10;;;;;;;0.00;0.00;;;9.90;99.90;;;;;;5111282;28;20199;-70
2023/12/13 10:37:36;;;;;;;0.00;0.00;;;10.00;99.90;;;;;;5102739;28;20281;-70
2023/12/13 10:40:03;;;;;;;0.00;0.00;;;10.00;99.90;;;;;;5092022;28;20596;-70
2023/12/13 10:42:29;;;;;;;0.08;0.08;;;10.20;99.90;;;;;;5092115;28;20192;-71
2023/12/13 10:44:55;;;;;;;0.00;0.00;;;10.20;99.90;;;;;;5094305;28;20317;-69
2023/12/13 10:47:25;;;;;;;0.00;0.00;;;10.30;99.90;;;;;;5091800;28;20270;-69
2023/12/13 10:49:55;;;;;;;0.00;0.00;;;10.40;99.90;;;;;;5091866;28;20176;-70
2023/12/13 10:52:23;;;;;;;0.20;0.20;;;10.40;99.90;;;;;;5091827;28;20215;-70
2023/12/13 10:54:51;;;;;;;0.00;0.00;;;10.50;99.90;;;;;;5091651;28;20531;-70
2023/12/13 10:57:18;;;;;;;0.00;0.00;;;10.50;99.90;;;;;;5091899;28;20552;-73
2023/12/13 10:59:45;;;;;;;0.00;0.00;;;10.60;99.90;;;;;;5092346;28;20189;-72
2023/12/13 11:02:15;;;;;;;0.00;0.00;;;10.60;99.90;;;;;;5102892;28;20180;-71
2023/12/13 11:04:43;;;;;;;0.00;0.00;;;10.60;99.90;;;;;;5091810;28;20601;-74
2023/12/13 11:07:08;;;;;;;0.00;0.00;;;10.70;99.90;;;;;;5091575;28;20658;-69
2023/12/13 11:09:35;;;;;;;0.00;0.00;;;10.70;99.90;;;;;;5091637;28;20172;-70
2023/12/13 11:12:19;;;;;;;0.00;0.00;;;10.70;99.90;;;;;;5091641;28;20180;-70
2023/12/13 11:14:50;;;;;;;0.00;0.00;;;10.70;99.90;;;;;;5091422;28;20665;-74
2023/12/13 11:17:18;;;;;;;0.00;0.00;;;10.80;99.90;;;;;;5091442;28;20220;-73
2023/12/13 11:19:44;;;;;;;0.00;0.00;;;10.80;99.90;;;;;;5102720;28;20186;-70
2023/12/13 11:22:12;;;;;;;0.00;0.00;;;10.80;99.90;;;;;;5091444;28;20195;-73
2023/12/13 11:24:40;;;;;;;0.00;0.00;;;10.80;99.90;;;;;;5091375;28;20195;-72
2023/12/13 11:27:10;;;;;;;0.00;0.00;;;10.80;99.90;;;;;;5091282;28;20261;-72
2023/12/13 11:29:36;;;;;;;0.00;0.00;;;10.90;99.90;;;;;;5091374;28;20233;-73
2023/12/13 11:32:05;;;;;;;0.00;0.00;;;11.00;99.90;;;;;;5091341;28;20206;-73
2023/12/13 11:34:42;;;;;;;0.00;0.00;;;11.20;99.90;;;;;;5109506;28;20184;-69
2023/12/13 11:37:09;;;;;;;0.00;0.00;;;11.20;99.90;;;;;;5105624;28;20694;-74
2023/12/13 11:39:36;;;;;;;0.00;0.00;;;11.30;99.90;;;;;;5091276;28;20184;-74
2023/12/13 11:42:04;;;;;;;0.00;0.00;;;11.30;99.90;;;;;;5091224;28;20208;-72
2023/12/13 11:44:31;;;;;;;0.05;0.05;;;11.20;99.90;;;;;;5091207;28;20191;-73
2023/12/13 11:46:58;;;;;;;0.00;0.00;;;11.10;99.90;;;;;;5091974;28;20180;-72
2023/12/13 11:49:25;;;;;;;0.00;0.00;;;11.10;99.90;;;;;;5104085;28;20198;-72
2023/12/13 11:51:55;;;;;;;0.10;0.10;;;11.00;99.90;;;;;;5091082;28;20176;-72
2023/12/13 11:54:21;;;;;;;0.00;0.00;;;11.00;99.90;;;;;;5097828;28;20217;-74
2023/12/13 11:56:47;;;;;;;0.00;0.00;;;11.00;99.90;;;;;;5111389;28;20171;-74
2023/12/13 11:59:13;;;;;;;0.00;0.00;;;10.90;99.90;;;;;;5101772;28;20176;-73
2023/12/13 12:01:39;;;;;;;0.00;0.00;;;10.90;99.90;;;;;;5091142;28;20168;-74
2023/12/13 12:04:04;;;;;;;0.00;0.00;;;11.00;99.90;;;;;;5091006;28;20654;-74
2023/12/13 12:06:30;;;;;;;0.03;0.03;;;11.00;99.90;;;;;;5091121;28;20188;-74
2023/12/13 12:09:00;;;;;;;0.00;0.00;;;11.10;99.90;;;;;;5091066;28;20179;-74
2023/12/13 12:11:26;;;;;;;0.00;0.00;;;11.20;99.90;;;;;;5100986;28;20179;-74
2023/12/13 12:13:51;;;;;;;0.20;0.20;;;11.20;99.90;;;;;;5111423;28;20176;-73
2023/12/13 12:16:19;;;;;;;0.00;0.00;;;11.20;99.90;;;;;;5111109;28;20811;-73
2023/12/13 12:18:45;;;;;;;0.00;0.00;;;11.10;99.90;;;;;;5111071;28;20219;-75
2023/12/13 12:21:11;;;;;;;0.00;0.00;;;11.00;99.90;;;;;;5092363;28;20660;-74
2023/12/13 12:23:42;;;;;;;0.00;0.00;;;10.80;99.90;;;;;;5097039;28;20267;-73
2023/12/13 12:26:08;;;;;;;0.00;0.00;;;10.50;99.90;;;;;;5092812;28;20180;-72
2023/12/13 12:28:35;;;;;;;0.00;0.00;;;10.20;99.90;;;;;;5090944;28;20183;-73
2023/12/13 12:31:01;;;;;;;0.25;0.25;;;10.10;99.90;;;;;;5091801;28;20640;-73
2023/12/13 12:33:26;;;;;;;0.00;0.00;;;10.00;99.90;;;;;;5090733;28;20176;-73
2023/12/13 12:35:52;;;;;;;0.10;0.03;;;9.80;99.90;;;;;;5090598;28;20704;-74
2023/12/13 12:38:17;;;;;;;0.00;0.00;;;9.70;99.90;;;;;;5102473;28;20235;-73
2023/12/13 12:40:44;;;;;;;0.00;0.00;;;9.60;99.90;;;;;;5106067;28;20233;-74
2023/12/13 12:43:11;;;;;;;0.00;0.00;;;9.50;99.90;;;;;;5098847;28;20215;-74
2023/12/13 12:45:36;;;;;;;0.00;0.00;;;9.40;99.90;;;;;;5101627;28;20179;-74
2023/12/13 12:48:02;;;;;;;0.10;0.10;;;9.30;99.90;;;;;;5115022;28;20236;-72
2023/12/13 12:50:28;;;;;;;0.00;0.00;;;9.30;99.90;;;;;;5101958;28;20639;-73